Time;durP1;ratioP1;P1;durP2;ratioP2;P2;SDS_P1;SDS_P2;PMS_P1;PMS_P2;Temp;Humidity;BMP_temperature;BMP_pressure;BME280_temperature;BME280_humidity;BME280_pressure;Samples;Min_cycle;Max_cycle;Signal;HPM_P1;HPM_P2
2024/03/18 00:00:18;;;;;;;0.50;0.50;;;;;;;8.63;100.00;96935.66;29394;232;64013;-54
2024/03/18 00:00:50;;;;;;;0.50;0.50;;;;;;;8.65;100.00;96927.25;29395;231;63004;-54
2024/03/18 00:01:21;;;;;;;0.50;0.50;;;;;;;8.64;100.00;96937.28;29395;272;63009;-54
2024/03/18 00:01:54;;;;;;;0.50;0.50;;;;;;;8.65;100.00;96936.19;29395;200;63005;-56
2024/03/18 00:02:30;;;;;;;0.50;0.50;;;;;;;8.64;100.00;96923.75;29395;207;63009;-54
2024/03/18 00:03:02;;;;;;;0.50;0.50;;;;;;;8.66;100.00;96929.66;29395;258;63005;-55
2024/03/18 00:03:35;;;;;;;2.00;1.90;;;;;;;8.66;100.00;96926.97;29395;363;63013;-54
2024/03/18 00:04:08;;;;;;;0.50;0.50;;;;;;;8.67;100.00;96935.88;29395;218;63005;-54
2024/03/18 00:04:39;;;;;;;0.50;0.50;;;;;;;8.67;100.00;96923.16;29395;197;63009;-55
2024/03/18 00:05:12;;;;;;;0.50;0.50;;;;;;;8.67;100.00;96923.16;29395;245;63004;-54
2024/03/18 00:05:44;;;;;;;1.87;1.85;;;;;;;8.68;100.00;96923.97;29394;226;64013;-54
2024/03/18 00:06:15;;;;;;;0.50;0.50;;;;;;;8.68;100.00;96927.50;29395;217;63004;-55
2024/03/18 00:06:47;;;;;;;0.50;0.50;;;;;;;8.69;99.79;96928.28;29395;261;63009;-54
2024/03/18 00:07:22;;;;;;;0.50;0.50;;;;;;;8.70;99.66;96924.50;29395;271;63004;-55
2024/03/18 00:07:54;;;;;;;0.50;0.50;;;;;;;8.69;99.63;96926.41;29395;210;63009;-54
2024/03/18 00:08:25;;;;;;;0.50;0.50;;;;;;;8.68;99.92;96924.78;29395;252;63005;-54
2024/03/18 00:08:56;;;;;;;0.50;0.50;;;;;;;8.70;99.65;96925.31;29395;239;63009;-55
2024/03/18 00:09:28;;;;;;;0.50;0.50;;;;;;;8.69;99.96;96923.69;29395;223;63005;-54
2024/03/18 00:10:00;;;;;;;0.50;0.50;;;;;;;8.70;99.81;96919.91;29395;284;63009;-54
2024/03/18 00:10:32;;;;;;;0.50;0.50;;;;;;;8.70;99.79;96922.59;29394;202;64009;-55
2024/03/18 00:11:04;;;;;;;0.50;0.50;;;;;;;8.69;99.59;96922.88;29395;249;63009;-55
2024/03/18 00:11:35;;;;;;;0.50;0.50;;;;;;;8.69;99.90;96929.09;29395;251;63000;-54
2024/03/18 00:12:07;;;;;;;0.50;0.50;;;;;;;8.70;99.53;96922.59;29395;364;63009;-55
2024/03/18 00:12:40;;;;;;;0.50;0.50;;;;;;;8.71;99.57;96921.53;29395;232;63004;-55
2024/03/18 00:13:11;;;;;;;0.50;0.50;;;;;;;8.72;99.29;96920.44;29395;196;63009;-54
2024/03/18 00:13:43;;;;;;;0.50;0.50;;;;;;;8.74;99.05;96926.38;29395;214;63004;-54
2024/03/18 00:14:14;;;;;;;0.50;0.50;;;;;;;8.74;98.92;96925.56;29395;247;63021;-54
2024/03/18 00:14:45;;;;;;;0.60;0.60;;;;;;;8.72;99.11;96923.13;29395;272;63004;-54
2024/03/18 00:15:17;;;;;;;0.50;0.50;;;;;;;8.72;98.92;96920.44;29395;201;63008;-55
2024/03/18 00:15:49;;;;;;;0.60;0.60;;;;;;;8.73;99.18;96918.53;29394;232;64009;-54
2024/03/18 00:16:20;;;;;;;0.50;0.50;;;;;;;8.72;99.43;96917.72;29395;309;63014;-69
2024/03/18 00:16:51;;;;;;;0.60;0.60;;;;;;;8.70;99.20;96919.09;29395;255;63005;-55
2024/03/18 00:17:23;;;;;;;0.60;0.60;;;;;;;8.69;99.30;96921.00;29394;388;64013;-55
2024/03/18 00:17:55;;;;;;;0.50;0.50;;;;;;;8.67;99.75;96920.47;29395;293;63005;-54
2024/03/18 00:18:27;;;;;;;0.50;0.50;;;;;;;8.66;99.65;96916.13;29395;208;63009;-54
2024/03/18 00:18:59;;;;;;;0.50;0.50;;;;;;;8.67;99.91;96919.66;29395;236;63005;-55
2024/03/18 00:19:31;;;;;;;0.50;0.50;;;;;;;8.67;100.00;96920.47;29395;269;63009;-55
2024/03/18 00:20:10;;;;;;;0.50;0.50;;;;;;;8.67;100.00;96915.06;29395;234;63004;-54
2024/03/18 00:20:42;;;;;;;0.50;0.50;;;;;;;8.66;99.81;96913.44;29395;229;63009;-54
2024/03/18 00:21:16;;;;;;;0.50;0.50;;;;;;;8.66;99.98;96918.84;29395;227;63004;-54
2024/03/18 00:21:48;;;;;;;0.50;0.50;;;;;;;8.66;99.72;96918.84;29395;233;63009;-54
2024/03/18 00:22:20;;;;;;;0.50;0.50;;;;;;;8.65;99.92;96922.66;29394;210;64008;-54
2024/03/18 00:22:52;;;;;;;0.50;0.50;;;;;;;8.64;99.93;96915.63;29395;519;63008;-54
2024/03/18 00:23:23;;;;;;;0.50;0.50;;;;;;;8.64;100.00;96918.34;29395;311;63005;-54
2024/03/18 00:23:54;;;;;;;0.50;0.50;;;;;;;8.63;100.00;96919.44;29395;302;63009;-54
2024/03/18 00:24:25;;;;;;;0.50;0.50;;;;;;;8.62;100.00;96915.09;29395;233;63005;-54
2024/03/18 00:24:57;;;;;;;0.50;0.50;;;;;;;8.60;100.00;96922.69;29395;200;63009;-55
2024/03/18 00:25:28;;;;;;;0.50;0.50;;;;;;;8.59;100.00;96917.56;29395;222;63005;-54
2024/03/18 00:26:00;;;;;;;0.50;0.50;;;;;;;8.58;100.00;96918.66;29395;518;63009;-54
2024/03/18 00:26:35;;;;;;;0.50;0.50;;;;;;;8.56;100.00;96913.50;29395;387;63005;-54
2024/03/18 00:27:06;;;;;;;0.50;0.50;;;;;;;8.54;100.00;96921.09;29395;198;63017;-54
2024/03/18 00:27:38;;;;;;;0.50;0.50;;;;;;;8.54;100.00;96915.69;29394;198;64009;-68
2024/03/18 00:28:10;;;;;;;0.50;0.50;;;;;;;8.53;100.00;96916.78;29395;232;63009;-55
2024/03/18 00:28:42;;;;;;;0.50;0.50;;;;;;;8.52;100.00;96923.25;29395;232;63004;-54
2024/03/18 00:29:13;;;;;;;0.50;0.50;;;;;;;8.49;100.00;96921.13;29395;431;63004;-54
2024/03/18 00:29:45;;;;;;;0.50;0.50;;;;;;;8.48;100.00;96922.19;29395;358;63004;-54
2024/03/18 00:30:17;;;;;;;0.50;0.50;;;;;;;8.47;100.00;96917.88;29395;402;63008;-54
2024/03/18 00:30:49;;;;;;;0.50;0.50;;;;;;;8.46;100.00;96921.66;29395;197;63005;-54
2024/03/18 00:31:20;;;;;;;0.50;0.50;;;;;;;8.45;100.00;96927.34;29395;360;63009;-54
2024/03/18 00:31:52;;;;;;;0.50;0.50;;;;;;;8.44;100.00;96925.75;29395;205;63005;-55
2024/03/18 00:32:24;;;;;;;0.50;0.50;;;;;;;8.42;100.00;96926.00;29395;450;63009;-54
2024/03/18 00:32:55;;;;;;;0.50;0.50;;;;;;;8.43;100.00;96924.13;29394;218;64009;-55
2024/03/18 00:33:27;;;;;;;0.50;0.50;;;;;;;8.41;100.00;96927.09;29395;255;63009;-54
2024/03/18 00:33:58;;;;;;;0.50;0.50;;;;;;;8.39;100.00;96926.56;29395;412;63005;-54
2024/03/18 00:34:32;;;;;;;0.50;0.50;;;;;;;8.38;100.00;96922.25;29395;328;63009;-68
2024/03/18 00:35:05;;;;;;;0.50;0.50;;;;;;;8.36;100.00;96924.41;29395;215;63004;-54
2024/03/18 00:35:38;;;;;;;0.50;0.50;;;;;;;8.35;100.00;96928.19;29395;202;63009;-54
2024/03/18 00:36:09;;;;;;;0.50;0.50;;;;;;;8.31;100.00;96922.53;29395;330;63004;-54
2024/03/18 00:36:41;;;;;;;0.50;0.50;;;;;;;8.31;100.00;96925.25;29395;196;63009;-54
2024/03/18 00:37:12;;;;;;;0.50;0.50;;;;;;;8.29;100.00;96921.19;29395;197;63004;-55
2024/03/18 00:37:44;;;;;;;0.50;0.50;;;;;;;8.27;100.00;96926.88;29395;219;63008;-54
2024/03/18 00:38:15;;;;;;;0.50;0.50;;;;;;;8.27;100.00;96920.66;29394;228;64009;-54
2024/03/18 00:38:48;;;;;;;0.50;0.50;;;;;;;8.25;100.00;96929.06;29395;227;63009;-55
2024/03/18 00:39:19;;;;;;;0.50;0.50;;;;;;;8.24;100.00;96923.91;29395;231;63005;-54
2024/03/18 00:39:50;;;;;;;0.52;0.52;;;;;;;8.21;100.00;96919.06;29395;294;63009;-55
2024/03/18 00:40:23;;;;;;;0.50;0.50;;;;;;;8.20;100.00;96923.66;29395;202;63005;-54
2024/03/18 00:41:44;;;;;;;0.50;0.50;;;;;;;8.21;100.00;96924.47;29395;223;63005;-55
2024/03/18 00:41:48;;;;;;;0.50;0.50;;;;;;;8.18;100.00;96916.91;29395;197;63005;-54
2024/03/18 00:42:20;;;;;;;0.50;0.50;;;;;;;8.18;100.00;96922.31;29395;198;63009;-54
2024/03/18 00:42:51;;;;;;;0.60;0.60;;;;;;;8.17;100.00;96915.28;29395;196;63004;-54
2024/03/18 00:43:23;;;;;;;0.50;0.50;;;;;;;8.16;100.00;96919.09;29394;286;64013;-54
2024/03/18 00:43:54;;;;;;;0.50;0.50;;;;;;;8.15;100.00;96920.97;29395;356;63004;-54
2024/03/18 00:44:26;;;;;;;0.73;0.73;;;;;;;8.16;100.00;96916.38;29395;442;63009;-54
2024/03/18 00:44:59;;;;;;;0.50;0.50;;;;;;;8.17;100.00;96916.09;29395;196;63004;-54
2024/03/18 00:45:30;;;;;;;0.50;0.50;;;;;;;8.18;100.00;96919.63;29395;361;63008;-70
2024/03/18 00:46:01;;;;;;;0.50;0.50;;;;;;;8.21;100.00;96916.34;29395;203;63005;-53
2024/03/18 00:46:32;;;;;;;0.50;0.50;;;;;;;8.22;100.00;96917.97;29395;560;63009;-54
2024/03/18 00:47:04;;;;;;;0.50;0.50;;;;;;;8.22;100.00;96917.97;29395;249;63005;-69
2024/03/18 00:47:35;;;;;;;0.50;0.50;;;;;;;8.24;100.00;96915.81;29395;222;63009;-54
2024/03/18 00:48:07;;;;;;;0.50;0.50;;;;;;;8.24;100.00;96923.91;29395;222;63005;-54
2024/03/18 00:48:39;;;;;;;0.52;0.52;;;;;;;8.24;100.00;96910.41;29394;295;64013;-54
2024/03/18 00:49:11;;;;;;;0.65;0.65;;;;;;;8.24;100.00;96913.09;29395;231;63005;-54
2024/03/18 00:49:43;;;;;;;0.50;0.50;;;;;;;8.25;100.00;96917.44;29395;291;63009;-54
2024/03/18 00:50:14;;;;;;;0.50;0.50;;;;;;;8.25;100.00;96918.25;29395;374;63004;-55
2024/03/18 00:50:46;;;;;;;0.50;0.50;;;;;;;8.25;100.00;96915.53;29395;242;63009;-54
2024/03/18 00:51:17;;;;;;;0.50;0.50;;;;;;;8.26;100.00;96913.63;29395;196;63000;-54
2024/03/18 00:51:48;;;;;;;0.55;0.55;;;;;;;8.27;100.00;96910.66;29395;433;63009;-54
2024/03/18 00:52:19;;;;;;;0.50;0.50;;;;;;;8.28;100.00;96911.47;29395;257;63004;-53
2024/03/18 00:52:51;;;;;;;0.50;0.50;;;;;;;8.28;100.00;96908.78;29395;243;63011;-54
2024/03/18 00:53:22;;;;;;;0.50;0.50;;;;;;;8.27;100.00;96907.16;29395;351;63005;-55
2024/03/18 00:53:54;;;;;;;0.50;0.50;;;;;;;8.26;100.00;96906.34;29394;426;64014;-54
2024/03/18 00:54:26;;;;;;;0.50;0.50;;;;;;;8.27;100.00;96909.84;29395;295;63005;-55
2024/03/18 00:54:57;;;;;;;0.50;0.50;;;;;;;8.26;100.00;96905.53;29395;216;63009;-69
2024/03/18 00:55:28;;;;;;;0.50;0.50;;;;;;;8.25;100.00;96907.44;29395;196;63005;-55
2024/03/18 00:56:06;;;;;;;0.50;0.50;;;;;;;8.26;100.00;96902.81;29395;278;63009;-54
2024/03/18 00:56:38;;;;;;;0.50;0.50;;;;;;;8.27;100.00;96904.44;29395;197;63005;-54
2024/03/18 00:57:09;;;;;;;0.50;0.50;;;;;;;8.27;100.00;96902.56;29394;239;64013;-55
2024/03/18 00:57:41;;;;;;;0.50;0.50;;;;;;;8.27;100.00;96897.16;29395;197;63004;-54
2024/03/18 00:58:12;;;;;;;0.50;0.50;;;;;;;8.27;100.00;96899.03;29395;243;63009;-54
2024/03/18 00:58:44;;;;;;;0.50;0.50;;;;;;;8.27;100.00;96899.84;29395;456;63004;-54
2024/03/18 00:59:15;;;;;;;0.50;0.50;;;;;;;8.27;100.00;96897.16;29395;220;63009;-54
2024/03/18 00:59:46;;;;;;;0.50;0.50;;;;;;;8.28;100.00;96889.84;29395;431;63004;-54
2024/03/18 01:00:19;;;;;;;0.50;0.50;;;;;;;8.28;100.00;96900.66;29395;227;63008;-54
2024/03/18 01:00:50;;;;;;;0.50;0.50;;;;;;;8.29;100.00;96894.16;29395;268;63005;-55
2024/03/18 01:01:22;;;;;;;0.50;0.50;;;;;;;8.30;100.00;96906.59;29395;234;63009;-54
2024/03/18 01:01:54;;;;;;;0.50;0.50;;;;;;;8.29;100.00;96903.09;29395;203;63005;-54
2024/03/18 01:02:26;;;;;;;0.50;0.50;;;;;;;8.30;100.00;96898.50;29394;202;64013;-54
2024/03/18 01:02:57;;;;;;;0.60;0.60;;;;;;;8.30;100.00;96898.50;29395;272;63005;-55
2024/03/18 01:03:33;;;;;;;0.50;0.50;;;;;;;8.29;100.00;96896.88;29395;231;63009;-54
2024/03/18 01:04:04;;;;;;;0.50;0.50;;;;;;;8.28;100.00;96890.66;29395;287;63000;-54
2024/03/18 01:04:35;;;;;;;2.58;2.47;;;;;;;8.29;100.00;96902.28;29395;207;63009;-54
2024/03/18 01:05:09;;;;;;;0.50;0.50;;;;;;;8.30;100.00;96899.28;29395;457;63004;-54
2024/03/18 01:05:40;;;;;;;0.50;0.50;;;;;;;8.31;100.00;96889.28;29395;204;63009;-54
2024/03/18 01:06:12;;;;;;;0.50;0.50;;;;;;;8.32;100.00;96893.59;29395;276;63004;-54
2024/03/18 01:06:43;;;;;;;0.50;0.50;;;;;;;8.34;100.00;96894.16;29395;313;63008;-54
2024/03/18 01:07:14;;;;;;;0.60;0.60;;;;;;;8.34;100.00;96886.03;29395;359;63004;-54
2024/03/18 01:07:46;;;;;;;0.50;0.50;;;;;;;8.35;100.00;96891.16;29394;426;64013;-54
2024/03/18 01:08:17;;;;;;;0.50;0.50;;;;;;;8.35;100.00;96887.66;29395;262;63005;-54
2024/03/18 01:08:48;;;;;;;0.50;0.50;;;;;;;8.34;100.00;96892.25;29395;197;63009;-54
2024/03/18 01:09:19;;;;;;;0.50;0.50;;;;;;;8.35;100.00;96891.16;29395;349;63005;-54
2024/03/18 01:09:50;;;;;;;0.60;0.60;;;;;;;8.36;100.00;96891.97;29396;226;63009;-54
2024/03/18 01:10:22;;;;;;;0.50;0.50;;;;;;;8.35;100.00;96890.34;29395;224;63005;-69
2024/03/18 01:10:53;;;;;;;0.50;0.50;;;;;;;8.34;100.00;96883.34;29395;227;63009;-54
2024/03/18 01:11:25;;;;;;;0.60;0.60;;;;;;;8.33;100.00;96882.53;29395;315;63000;-69
2024/03/18 01:11:56;;;;;;;0.50;0.50;;;;;;;8.34;100.00;96877.91;29395;266;63009;-69
2024/03/18 01:12:28;;;;;;;0.50;0.50;;;;;;;8.35;100.00;96879.53;29395;231;63004;-55
2024/03/18 01:12:59;;;;;;;0.50;0.50;;;;;;;8.37;100.00;96883.59;29394;227;64013;-54
2024/03/18 01:13:35;;;;;;;0.50;0.50;;;;;;;8.38;100.00;96881.69;29395;246;63004;-54
2024/03/18 01:14:06;;;;;;;0.50;0.50;;;;;;;8.38;100.00;96877.09;29395;237;63008;-54
2024/03/18 01:14:38;;;;;;;0.50;0.50;;;;;;;8.39;100.00;96877.91;29395;255;63004;-54
2024/03/18 01:15:10;;;;;;;0.50;0.50;;;;;;;8.39;100.00;96881.41;29395;254;63009;-54
2024/03/18 01:15:42;;;;;;;0.50;0.50;;;;;;;8.40;100.00;96882.22;29395;345;63009;-54
2024/03/18 01:16:14;;;;;;;0.50;0.50;;;;;;;8.39;100.00;96880.59;29395;204;63015;-54
2024/03/18 01:16:47;;;;;;;0.50;0.50;;;;;;;8.39;100.00;96875.19;29395;247;63005;-54
2024/03/18 01:17:18;;;;;;;0.50;0.50;;;;;;;8.39;100.00;96876.00;29395;226;63009;-54
2024/03/18 01:17:52;;;;;;;0.50;0.50;;;;;;;8.39;100.00;96875.19;29395;225;63005;-54
2024/03/18 01:18:23;;;;;;;0.50;0.50;;;;;;;8.39;100.00;96869.78;29394;243;64013;-54
2024/03/18 01:18:55;;;;;;;0.50;0.50;;;;;;;8.39;100.00;96869.78;29395;199;63005;-54
2024/03/18 01:19:27;;;;;;;0.50;0.50;;;;;;;8.39;100.00;96876.00;29395;222;63014;-69
2024/03/18 01:19:58;;;;;;;0.50;0.50;;;;;;;8.39;100.00;96869.78;29395;244;63004;-55
2024/03/18 01:20:29;;;;;;;0.50;0.50;;;;;;;8.38;100.00;96877.09;29395;388;63016;-55
2024/03/18 01:21:00;;;;;;;0.50;0.50;;;;;;;8.38;100.00;96874.38;29395;229;63004;-54
2024/03/18 01:21:32;;;;;;;0.50;0.50;;;;;;;8.38;100.00;96873.59;29395;199;63009;-55
2024/03/18 01:22:04;;;;;;;0.50;0.50;;;;;;;8.37;100.00;96874.66;29395;276;63004;-54
2024/03/18 01:22:36;;;;;;;0.40;0.40;;;;;;;8.38;100.00;96868.16;29395;350;63009;-54
2024/03/18 01:23:07;;;;;;;0.50;0.50;;;;;;;8.38;100.00;96862.75;29395;248;63005;-54
2024/03/18 01:23:39;;;;;;;0.50;0.50;;;;;;;8.38;100.00;96868.16;29394;362;64014;-54
2024/03/18 01:24:11;;;;;;;0.50;0.50;;;;;;;8.38;100.00;96868.16;29395;202;63005;-54
2024/03/18 01:24:42;;;;;;;0.50;0.50;;;;;;;8.39;100.00;96869.78;29395;446;63009;-54
2024/03/18 01:25:13;;;;;;;0.50;0.50;;;;;;;8.39;100.00;96867.91;29395;364;63005;-55
2024/03/18 01:25:44;;;;;;;0.50;0.50;;;;;;;8.40;100.00;96866.00;29395;204;63009;-54
2024/03/18 01:26:16;;;;;;;0.85;0.85;;;;;;;8.42;100.00;96860.31;29395;361;63005;-54
2024/03/18 01:26:47;;;;;;;0.50;0.50;;;;;;;8.42;100.00;96860.31;29395;320;63004;-54
2024/03/18 01:27:21;;;;;;;0.50;0.50;;;;;;;8.41;100.00;96862.22;29395;220;63004;-54
2024/03/18 01:27:52;;;;;;;0.50;0.50;;;;;;;8.42;100.00;96858.41;29395;343;63009;-54
2024/03/18 01:28:23;;;;;;;0.50;0.50;;;;;;;8.42;100.00;96861.13;29395;302;63004;-54
2024/03/18 01:28:55;;;;;;;0.50;0.50;;;;;;;8.43;100.00;96851.94;29394;279;64013;-55
2024/03/18 01:29:26;;;;;;;0.50;0.50;;;;;;;8.43;100.00;96849.22;29395;199;63004;-54
2024/03/18 01:29:58;;;;;;;0.50;0.50;;;;;;;8.44;100.00;96856.25;29395;310;63008;-54
2024/03/18 01:30:29;;;;;;;0.50;0.50;;;;;;;8.46;100.00;96848.66;29395;198;63005;-54
2024/03/18 01:31:03;;;;;;;0.50;0.50;;;;;;;8.46;100.00;96848.66;29395;233;63009;-54
2024/03/18 01:31:35;;;;;;;0.50;0.50;;;;;;;8.46;100.00;96854.06;29395;301;63005;-54
2024/03/18 01:32:06;;;;;;;0.50;0.50;;;;;;;8.46;100.00;96851.38;29395;198;63009;-54
2024/03/18 01:32:38;;;;;;;0.50;0.50;;;;;;;8.47;100.00;96854.88;29395;492;63005;-54
2024/03/18 01:33:09;;;;;;;0.50;0.50;;;;;;;8.46;100.00;96854.06;29395;199;63009;-54
2024/03/18 01:33:41;;;;;;;0.50;0.50;;;;;;;8.45;100.00;96857.84;29395;392;63005;-53
2024/03/18 01:34:13;;;;;;;0.50;0.50;;;;;;;8.46;100.00;96854.06;29394;290;64027;-54
2024/03/18 01:34:45;;;;;;;0.50;0.50;;;;;;;8.45;100.00;96847.03;29395;217;63004;-69
2024/03/18 01:35:19;;;;;;;0.50;0.50;;;;;;;8.43;100.00;96849.22;29395;527;63009;-54
2024/03/18 01:35:51;;;;;;;0.50;0.50;;;;;;;8.44;100.00;96852.72;29395;241;63004;-54
2024/03/18 01:36:22;;;;;;;0.50;0.50;;;;;;;8.43;100.00;96853.81;29395;220;63009;-54
2024/03/18 01:36:54;;;;;;;0.50;0.50;;;;;;;8.41;100.00;96856.81;29395;376;63004;-54
2024/03/18 01:37:25;;;;;;;0.50;0.50;;;;;;;8.38;100.00;96847.34;29395;217;63008;-54
2024/03/18 01:37:56;;;;;;;0.50;0.50;;;;;;;8.38;100.00;96857.34;29395;223;63005;-54
2024/03/18 01:38:28;;;;;;;0.50;0.50;;;;;;;8.37;100.00;96855.75;29395;234;63009;-67
2024/03/18 01:38:59;;;;;;;0.50;0.50;;;;;;;8.37;100.00;96855.75;29395;351;63010;-54
2024/03/18 01:39:31;;;;;;;0.50;0.50;;;;;;;8.37;100.00;96859.25;29394;197;64013;-54
2024/03/18 01:40:03;;;;;;;0.50;0.50;;;;;;;8.37;100.00;96855.75;29395;252;63005;-54
2024/03/18 01:40:34;;;;;;;0.50;0.50;;;;;;;8.37;100.00;96855.75;29395;197;63009;-54
2024/03/18 01:41:09;;;;;;;0.50;0.50;;;;;;;8.37;100.00;96855.75;29395;428;63005;-68
2024/03/18 01:41:40;;;;;;;0.50;0.50;;;;;;;8.36;100.00;96854.13;29395;202;63014;-54
2024/03/18 01:42:11;;;;;;;0.50;0.50;;;;;;;8.36;100.00;96856.81;29395;466;63004;-54
2024/03/18 01:42:46;;;;;;;0.50;0.50;;;;;;;8.35;100.00;96853.31;29395;421;63004;-54
2024/03/18 01:43:18;;;;;;;0.50;0.50;;;;;;;8.35;100.00;96856.03;29395;257;63004;-54
2024/03/18 01:43:50;;;;;;;0.50;0.50;;;;;;;8.35;100.00;96853.31;29395;392;63025;-54
2024/03/18 01:44:22;;;;;;;0.50;0.50;;;;;;;8.36;100.00;96844.13;29395;202;63004;-54
2024/03/18 01:44:55;;;;;;;0.50;0.50;;;;;;;8.36;100.00;96854.13;29394;325;64013;-54
2024/03/18 01:45:26;;;;;;;0.50;0.50;;;;;;;8.36;100.00;96849.53;29395;198;63005;-53
2024/03/18 01:45:57;;;;;;;0.50;0.50;;;;;;;8.35;100.00;96853.31;29395;249;63009;-54
2024/03/18 01:46:29;;;;;;;0.50;0.50;;;;;;;8.34;100.00;96856.28;29395;374;63005;-54
2024/03/18 01:47:00;;;;;;;0.60;0.60;;;;;;;8.32;100.00;96847.63;29395;260;63009;-54
2024/03/18 01:47:32;;;;;;;0.50;0.50;;;;;;;8.30;100.00;96844.41;29395;204;63005;-54
2024/03/18 01:48:05;;;;;;;0.50;0.50;;;;;;;8.30;100.00;96844.41;29395;214;63009;-54
2024/03/18 01:48:36;;;;;;;0.50;0.50;;;;;;;8.30;100.00;96844.41;29395;384;63005;-54
2024/03/18 01:49:07;;;;;;;0.50;0.50;;;;;;;8.31;100.00;96840.63;29395;256;63009;-55
2024/03/18 01:49:39;;;;;;;0.50;0.50;;;;;;;8.31;100.00;96835.22;29395;402;63004;-54
2024/03/18 01:50:10;;;;;;;0.50;0.50;;;;;;;8.32;100.00;96836.81;29394;310;64013;-54
2024/03/18 01:50:43;;;;;;;0.50;0.50;;;;;;;8.33;100.00;96846.56;29395;236;63004;-54
2024/03/18 01:51:14;;;;;;;0.50;0.50;;;;;;;8.33;100.00;96839.25;29395;205;63009;-54
2024/03/18 01:51:46;;;;;;;0.50;0.50;;;;;;;8.34;100.00;96845.47;29395;254;63004;-53
2024/03/18 01:52:19;;;;;;;0.50;0.50;;;;;;;8.35;100.00;96847.09;29395;225;63008;-54
2024/03/18 01:52:53;;;;;;;0.50;0.50;;;;;;;8.36;100.00;96841.41;29395;211;63005;-54
2024/03/18 01:53:25;;;;;;;0.50;0.50;;;;;;;8.39;100.00;96840.06;29395;414;63009;-69
2024/03/18 01:53:57;;;;;;;0.50;0.50;;;;;;;8.38;100.00;96841.12;29395;218;63005;-54
2024/03/18 01:54:29;;;;;;;0.50;0.50;;;;;;;8.38;100.00;96843.84;29395;234;63013;-54
2024/03/18 01:55:01;;;;;;;0.50;0.50;;;;;;;8.38;100.00;96835.72;29395;335;63005;-54
2024/03/18 01:55:33;;;;;;;0.50;0.50;;;;;;;8.35;100.00;96834.38;29394;241;64013;-54
2024/03/18 01:56:09;;;;;;;0.50;0.50;;;;;;;8.35;100.00;96836.28;29395;245;63004;-54
2024/03/18 01:56:40;;;;;;;0.50;0.50;;;;;;;8.32;100.00;96843.06;29395;252;63009;-54
2024/03/18 01:57:11;;;;;;;0.50;0.50;;;;;;;8.32;100.00;96840.34;29395;252;63004;-54
2024/03/18 01:57:44;;;;;;;0.50;0.50;;;;;;;8.32;100.00;96842.22;29395;197;63015;-54
2024/03/18 01:58:17;;;;;;;0.50;0.50;;;;;;;8.31;100.00;96844.16;29395;197;63004;-54
2024/03/18 01:58:49;;;;;;;0.50;0.50;;;;;;;8.29;100.00;96832.00;29395;238;63008;-55
2024/03/18 01:59:21;;;;;;;0.50;0.50;;;;;;;8.30;100.00;96839.00;29395;460;63004;-55
2024/03/18 01:59:53;;;;;;;0.50;0.50;;;;;;;8.31;100.00;96832.53;29395;198;63008;-54
2024/03/18 02:00:35;;;;;;;0.50;0.50;;;;;;;8.31;100.00;96836.03;29395;202;63005;-54
2024/03/18 02:01:07;;;;;;;0.50;0.50;;;;;;;8.32;100.00;96831.41;29394;227;64013;-54
2024/03/18 02:01:40;;;;;;;0.50;0.50;;;;;;;8.31;100.00;96833.31;29395;426;63005;-54
2024/03/18 02:02:12;;;;;;;0.50;0.50;;;;;;;8.31;100.00;96840.63;29395;221;63009;-54
2024/03/18 02:02:46;;;;;;;0.50;0.50;;;;;;;8.31;100.00;96841.44;29395;227;63005;-54
2024/03/18 02:03:23;;;;;;;0.50;0.50;;;;;;;8.30;100.00;96834.41;29395;197;63009;-54
2024/03/18 02:03:54;;;;;;;0.50;0.50;;;;;;;8.30;100.00;96839.00;29395;262;63010;-54
2024/03/18 02:04:25;;;;;;;0.50;0.50;;;;;;;8.30;100.00;96833.59;29395;259;63009;-54
2024/03/18 02:04:57;;;;;;;0.50;0.50;;;;;;;8.30;100.00;96833.59;29395;222;63004;-54
2024/03/18 02:05:29;;;;;;;0.50;0.50;;;;;;;8.30;100.00;96828.19;29395;294;63009;-54
2024/03/18 02:06:00;;;;;;;0.50;0.50;;;;;;;8.30;100.00;96834.41;29395;318;63004;-54
2024/03/18 02:06:31;;;;;;;0.50;0.50;;;;;;;8.30;100.00;96839.00;29394;214;64013;-54
2024/03/18 02:07:21;;;;;;;0.50;0.50;;;;;;;8.29;100.00;96837.41;29394;479;64005;-54
2024/03/18 02:07:52;;;;;;;0.50;0.50;;;;;;;8.29;100.00;96837.41;29395;274;63009;-68
2024/03/18 02:08:24;;;;;;;0.50;0.50;;;;;;;8.29;100.00;96840.09;29395;232;63005;-54
2024/03/18 02:08:55;;;;;;;0.50;0.50;;;;;;;8.29;100.00;96840.09;29395;306;63009;-55
2024/03/18 02:09:29;;;;;;;0.50;0.50;;;;;;;8.28;100.00;96842.00;29395;362;63005;-54
2024/03/18 02:10:01;;;;;;;0.50;0.50;;;;;;;8.28;100.00;96839.28;29395;258;63009;-54
2024/03/18 02:10:32;;;;;;;0.50;0.50;;;;;;;8.27;100.00;96828.75;29395;237;63000;-54
2024/03/18 02:11:03;;;;;;;0.50;0.50;;;;;;;8.28;100.00;96838.47;29395;218;63009;-54
2024/03/18 02:11:35;;;;;;;0.50;0.50;;;;;;;8.29;100.00;96842.81;29394;260;64009;-54
2024/03/18 02:12:07;;;;;;;0.50;0.50;;;;;;;8.28;100.00;96830.37;29395;204;63009;-54
2024/03/18 02:12:39;;;;;;;0.50;0.50;;;;;;;8.28;100.00;96841.19;29395;220;63004;-54
2024/03/18 02:13:10;;;;;;;0.50;0.50;;;;;;;8.27;100.00;96837.69;29395;203;63009;-68
2024/03/18 02:13:41;;;;;;;0.50;0.50;;;;;;;8.29;100.00;96837.41;29395;353;63004;-54
2024/03/18 02:14:13;;;;;;;0.50;0.50;;;;;;;8.29;100.00;96842.81;29395;271;63008;-54
2024/03/18 02:14:51;;;;;;;0.50;0.50;;;;;;;8.30;100.00;96834.41;29395;203;63005;-68
2024/03/18 02:15:22;;;;;;;0.50;0.50;;;;;;;8.30;100.00;96828.19;29395;210;63009;-54
2024/03/18 02:15:53;;;;;;;0.50;0.50;;;;;;;8.30;100.00;96839.00;29395;223;63005;-55
2024/03/18 02:16:25;;;;;;;0.50;0.50;;;;;;;8.30;100.00;96828.19;29395;203;63015;-54
2024/03/18 02:16:56;;;;;;;0.50;0.50;;;;;;;8.31;100.00;96835.22;29394;215;64009;-55
2024/03/18 02:17:28;;;;;;;0.50;0.50;;;;;;;8.32;100.00;96831.41;29395;229;63023;-54
2024/03/18 02:17:59;;;;;;;0.50;0.50;;;;;;;8.32;100.00;96831.41;29395;196;63005;-54
2024/03/18 02:18:31;;;;;;;0.50;0.50;;;;;;;8.32;100.00;96831.41;29395;246;63009;-54
2024/03/18 02:19:03;;;;;;;0.50;0.50;;;;;;;8.33;100.00;96828.44;29395;216;63004;-54
2024/03/18 02:19:34;;;;;;;0.50;0.50;;;;;;;8.32;100.00;96824.13;29395;260;63009;-54
2024/03/18 02:20:07;;;;;;;0.50;0.50;;;;;;;8.35;100.00;96825.47;29395;220;63004;-54
2024/03/18 02:20:40;;;;;;;0.50;0.50;;;;;;;8.35;100.00;96825.47;29395;370;63009;-54
2024/03/18 02:21:12;;;;;;;0.50;0.50;;;;;;;8.37;100.00;96826.00;29394;197;64008;-54
2024/03/18 02:21:43;;;;;;;0.50;0.50;;;;;;;8.38;100.00;96833.03;29395;296;63008;-54
2024/03/18 02:22:14;;;;;;;0.50;0.50;;;;;;;8.38;100.00;96824.91;29395;383;63005;-54
2024/03/18 02:22:47;;;;;;;0.50;0.50;;;;;;;8.39;100.00;96823.81;29395;298;63009;-54
2024/03/18 02:23:20;;;;;;;0.50;0.50;;;;;;;8.39;100.00;96821.13;29395;206;63005;-54
2024/03/18 02:23:51;;;;;;;0.50;0.50;;;;;;;8.39;100.00;96823.81;29395;329;63005;-54
2024/03/18 02:24:24;;;;;;;0.50;0.50;;;;;;;8.39;100.00;96819.22;29395;209;63005;-55
2024/03/18 02:24:56;;;;;;;0.50;0.50;;;;;;;8.41;100.00;96818.94;29395;219;63009;-54
2024/03/18 02:25:28;;;;;;;0.50;0.50;;;;;;;8.42;100.00;96819.75;29395;200;63005;-54
2024/03/18 02:25:59;;;;;;;0.50;0.50;;;;;;;8.42;100.00;96812.44;29395;462;63009;-54
2024/03/18 02:26:33;;;;;;;0.50;0.50;;;;;;;8.44;100.00;96821.09;29394;273;64009;-54
2024/03/18 02:27:06;;;;;;;0.50;0.50;;;;;;;8.47;100.00;96808.91;29395;231;63009;-54
2024/03/18 02:27:37;;;;;;;0.50;0.50;;;;;;;8.47;100.00;96812.44;29395;435;63004;-69
2024/03/18 02:28:09;;;;;;;0.50;0.50;;;;;;;8.48;100.00;96808.63;29395;465;63009;-55
2024/03/18 02:28:42;;;;;;;0.50;0.50;;;;;;;8.49;100.00;96810.25;29394;391;64009;-54
2024/03/18 02:29:13;;;;;;;0.50;0.50;;;;;;;8.51;100.00;96808.06;29395;213;63008;-54
2024/03/18 02:29:44;;;;;;;0.40;0.40;;;;;;;8.52;100.00;96803.47;29395;225;63005;-54
2024/03/18 02:30:16;;;;;;;0.50;0.50;;;;;;;8.54;100.00;96801.28;29395;219;63009;-54
2024/03/18 02:30:49;;;;;;;0.50;0.50;;;;;;;8.54;100.00;96804.81;29395;209;63005;-54
2024/03/18 02:31:20;;;;;;;0.50;0.50;;;;;;;8.54;100.00;96802.09;29395;260;63009;-54
2024/03/18 02:31:51;;;;;;;0.70;0.70;;;;;;;8.55;100.00;96803.72;29395;200;63005;-54
2024/03/18 02:32:23;;;;;;;0.50;0.50;;;;;;;8.54;100.00;96804.81;29395;218;63009;-54
2024/03/18 02:32:54;;;;;;;0.50;0.50;;;;;;;8.55;100.00;96798.31;29395;196;63008;-54